Terminal Aerodrome Forecast
Issued by NWS

Home | Current Version | Previous Version | Text Only | Print | Product List | Glossary On
Versions: 1 2 3 4 5 6 7 8 9 10 11 12 13 14 15 16 17 18 19 20 21 22 23 24 25
906
FTUS44 KSJT 030523
TAFJCT
TAF
KJCT 030523Z 0306/0406 07010KT 6SM -DZ BR OVC015
     FM030900 05011KT 4SM -RA BR OVC008
     FM031200 05008KT 2SM BR OVC004
     FM031800 04008KT 6SM -DZ BR OVC015=

USA.gov is the U.S. government's official web portal to all federal, state and local government web resources and services.